sensor_id;sensor_type;location;lat;lon;timestamp;noise_LAeq;noise_LA_min;noise_LA_max;noise_LA01;noise_LA95
66456;Laerm;56833;52.254;5.598;2023-03-01T00:00:08;44.82;43.78;45.97;;
66456;Laerm;56833;52.254;5.598;2023-03-01T00:00:18;44.85;44.01;45.79;;
66456;Laerm;56833;52.254;5.598;2023-03-01T00:00:28;44.82;43.87;45.79;;
66456;Laerm;56833;52.254;5.598;2023-03-01T00:00:39;44.78;43.80;45.95;;
66456;Laerm;56833;52.254;5.598;2023-03-01T00:00:52;44.81;43.88;45.82;;
66456;Laerm;56833;52.254;5.598;2023-03-01T00:01:16;44.82;43.87;45.82;;
66456;Laerm;56833;52.254;5.598;2023-03-01T00:01:28;44.79;43.84;45.74;;
66456;Laerm;56833;52.254;5.598;2023-03-01T00:01:38;44.80;43.98;45.69;;
66456;Laerm;56833;52.254;5.598;2023-03-01T00:01:48;44.79;43.86;45.60;;
66456;Laerm;56833;52.254;5.598;2023-03-01T00:01:59;44.81;43.91;45.87;;
66456;Laerm;56833;52.254;5.598;2023-03-01T00:02:09;44.81;43.96;45.82;;
66456;Laerm;56833;52.254;5.598;2023-03-01T00:02:19;44.74;43.62;45.95;;
66456;Laerm;56833;52.254;5.598;2023-03-01T00:02:30;44.81;43.87;45.79;;
66456;Laerm;56833;52.254;5.598;2023-03-01T00:02:40;44.77;43.65;45.67;;
66456;Laerm;56833;52.254;5.598;2023-03-01T00:02:50;44.76;43.79;45.77;;
66456;Laerm;56833;52.254;5.598;2023-03-01T00:03:00;44.71;43.75;46.35;;
66456;Laerm;56833;52.254;5.598;2023-03-01T00:03:11;44.65;43.67;45.65;;
66456;Laerm;56833;52.254;5.598;2023-03-01T00:03:21;44.65;43.83;45.59;;
66456;Laerm;56833;52.254;5.598;2023-03-01T00:03:31;44.65;43.82;45.59;;
66456;Laerm;56833;52.254;5.598;2023-03-01T00:03:42;44.62;43.40;45.75;;
66456;Laerm;56833;52.254;5.598;2023-03-01T00:03:53;44.61;43.52;45.80;;
66456;Laerm;56833;52.254;5.598;2023-03-01T00:04:03;44.59;43.69;45.59;;
66456;Laerm;56833;52.254;5.598;2023-03-01T00:04:13;44.60;43.82;45.61;;
66456;Laerm;56833;52.254;5.598;2023-03-01T00:04:24;44.58;43.32;45.47;;
66456;Laerm;56833;52.254;5.598;2023-03-01T00:04:34;44.55;43.53;45.76;;
66456;Laerm;56833;52.254;5.598;2023-03-01T00:04:47;44.53;43.61;45.30;;
66456;Laerm;56833;52.254;5.598;2023-03-01T00:04:58;44.52;43.61;45.46;;
66456;Laerm;56833;52.254;5.598;2023-03-01T00:05:08;44.52;43.71;45.36;;
66456;Laerm;56833;52.254;5.598;2023-03-01T00:05:18;44.54;43.57;45.41;;
66456;Laerm;56833;52.254;5.598;2023-03-01T00:05:28;44.51;43.59;45.53;;
66456;Laerm;56833;52.254;5.598;2023-03-01T00:05:45;44.55;43.58;45.44;;
66456;Laerm;56833;52.254;5.598;2023-03-01T00:05:56;44.53;43.53;45.48;;
66456;Laerm;56833;52.254;5.598;2023-03-01T00:06:06;44.48;43.49;45.52;;
66456;Laerm;56833;52.254;5.598;2023-03-01T00:06:17;44.51;43.66;45.60;;
66456;Laerm;56833;52.254;5.598;2023-03-01T00:06:27;44.53;43.52;45.59;;
66456;Laerm;56833;52.254;5.598;2023-03-01T00:06:37;44.51;43.41;45.47;;
66456;Laerm;56833;52.254;5.598;2023-03-01T00:06:48;44.51;43.68;45.42;;
66456;Laerm;56833;52.254;5.598;2023-03-01T00:06:58;44.50;43.45;45.34;;
66456;Laerm;56833;52.254;5.598;2023-03-01T00:07:08;44.56;43.37;45.36;;
66456;Laerm;56833;52.254;5.598;2023-03-01T00:07:19;44.49;43.27;45.21;;
66456;Laerm;56833;52.254;5.598;2023-03-01T00:07:29;44.49;43.61;45.62;;
66456;Laerm;56833;52.254;5.598;2023-03-01T00:07:39;44.51;43.42;45.37;;
66456;Laerm;56833;52.254;5.598;2023-03-01T00:07:52;44.52;43.68;45.33;;
66456;Laerm;56833;52.254;5.598;2023-03-01T00:08:02;44.54;43.53;45.36;;
66456;Laerm;56833;52.254;5.598;2023-03-01T00:08:12;44.51;43.64;45.34;;
66456;Laerm;56833;52.254;5.598;2023-03-01T00:08:23;44.47;43.52;45.91;;
66456;Laerm;56833;52.254;5.598;2023-03-01T00:08:33;44.48;43.51;45.22;;
66456;Laerm;56833;52.254;5.598;2023-03-01T00:08:44;44.49;43.53;45.39;;
66456;Laerm;56833;52.254;5.598;2023-03-01T00:08:54;44.42;43.66;45.50;;
66456;Laerm;56833;52.254;5.598;2023-03-01T00:09:05;44.41;43.39;45.41;;
66456;Laerm;56833;52.254;5.598;2023-03-01T00:09:16;44.41;43.23;45.47;;
66456;Laerm;56833;52.254;5.598;2023-03-01T00:09:26;44.43;43.26;45.36;;
66456;Laerm;56833;52.254;5.598;2023-03-01T00:09:36;44.45;43.61;45.42;;
66456;Laerm;56833;52.254;5.598;2023-03-01T00:09:47;44.38;43.47;45.25;;
66456;Laerm;56833;52.254;5.598;2023-03-01T00:09:57;44.40;43.47;45.35;;
66456;Laerm;56833;52.254;5.598;2023-03-01T00:10:08;44.42;43.44;45.43;;
66456;Laerm;56833;52.254;5.598;2023-03-01T00:10:18;44.34;43.53;45.23;;
66456;Laerm;56833;52.254;5.598;2023-03-01T00:10:28;44.32;43.08;45.26;;
66456;Laerm;56833;52.254;5.598;2023-03-01T00:10:39;44.34;43.42;45.15;;
66456;Laerm;56833;52.254;5.598;2023-03-01T00:10:49;44.36;43.08;45.34;;
66456;Laerm;56833;52.254;5.598;2023-03-01T00:11:19;44.35;43.50;45.27;;
66456;Laerm;56833;52.254;5.598;2023-03-01T00:11:30;44.39;43.36;45.25;;
66456;Laerm;56833;52.254;5.598;2023-03-01T00:11:44;44.39;43.12;45.56;;
66456;Laerm;56833;52.254;5.598;2023-03-01T00:11:54;44.42;43.51;45.38;;
66456;Laerm;56833;52.254;5.598;2023-03-01T00:12:07;44.44;43.50;45.59;;
66456;Laerm;56833;52.254;5.598;2023-03-01T00:12:17;44.45;43.43;45.44;;
66456;Laerm;56833;52.254;5.598;2023-03-01T00:12:27;44.49;43.41;45.34;;
66456;Laerm;56833;52.254;5.598;2023-03-01T00:12:37;44.49;43.55;45.43;;
66456;Laerm;56833;52.254;5.598;2023-03-01T00:12:48;44.54;43.43;45.53;;
66456;Laerm;56833;52.254;5.598;2023-03-01T00:12:58;44.51;43.47;45.45;;
66456;Laerm;56833;52.254;5.598;2023-03-01T00:13:11;44.60;43.60;45.47;;
66456;Laerm;56833;52.254;5.598;2023-03-01T00:13:21;44.52;43.24;45.46;;
66456;Laerm;56833;52.254;5.598;2023-03-01T00:13:32;44.54;43.52;45.43;;
66456;Laerm;56833;52.254;5.598;2023-03-01T00:13:43;44.56;43.39;45.32;;
66456;Laerm;56833;52.254;5.598;2023-03-01T00:13:55;44.55;43.57;45.53;;
66456;Laerm;56833;52.254;5.598;2023-03-01T00:14:07;44.59;43.63;45.56;;
66456;Laerm;56833;52.254;5.598;2023-03-01T00:14:17;44.57;43.77;45.63;;
66456;Laerm;56833;52.254;5.598;2023-03-01T00:14:27;44.57;43.76;45.60;;
66456;Laerm;56833;52.254;5.598;2023-03-01T00:14:38;44.55;43.42;45.81;;
66456;Laerm;56833;52.254;5.598;2023-03-01T00:14:48;44.56;43.57;45.56;;
66456;Laerm;56833;52.254;5.598;2023-03-01T00:14:58;44.60;43.48;45.51;;
66456;Laerm;56833;52.254;5.598;2023-03-01T00:15:08;44.62;43.64;45.37;;
66456;Laerm;56833;52.254;5.598;2023-03-01T00:15:19;44.59;43.41;45.55;;
66456;Laerm;56833;52.254;5.598;2023-03-01T00:15:29;44.64;43.20;45.68;;
66456;Laerm;56833;52.254;5.598;2023-03-01T00:15:40;44.60;43.69;45.44;;
66456;Laerm;56833;52.254;5.598;2023-03-01T00:15:51;44.59;43.68;45.58;;
66456;Laerm;56833;52.254;5.598;2023-03-01T00:16:02;44.56;43.59;45.57;;
66456;Laerm;56833;52.254;5.598;2023-03-01T00:16:14;44.58;43.53;45.49;;
66456;Laerm;56833;52.254;5.598;2023-03-01T00:16:26;44.52;43.54;45.33;;
66456;Laerm;56833;52.254;5.598;2023-03-01T00:16:38;44.53;43.29;45.54;;
66456;Laerm;56833;52.254;5.598;2023-03-01T00:16:49;44.52;43.57;45.78;;
66456;Laerm;56833;52.254;5.598;2023-03-01T00:16:59;44.47;43.61;45.54;;
66456;Laerm;56833;52.254;5.598;2023-03-01T00:17:10;44.52;43.37;45.52;;
66456;Laerm;56833;52.254;5.598;2023-03-01T00:17:20;44.48;43.34;45.40;;
66456;Laerm;56833;52.254;5.598;2023-03-01T00:17:31;44.52;43.77;45.70;;
66456;Laerm;56833;52.254;5.598;2023-03-01T00:17:41;44.47;43.58;45.65;;
66456;Laerm;56833;52.254;5.598;2023-03-01T00:17:51;44.51;43.47;45.32;;
66456;Laerm;56833;52.254;5.598;2023-03-01T00:18:02;44.53;43.72;45.69;;
66456;Laerm;56833;52.254;5.598;2023-03-01T00:18:12;44.57;43.39;45.46;;
66456;Laerm;56833;52.254;5.598;2023-03-01T00:18:22;44.61;43.65;45.56;;
66456;Laerm;56833;52.254;5.598;2023-03-01T00:18:33;44.63;43.75;45.68;;
66456;Laerm;56833;52.254;5.598;2023-03-01T00:18:43;44.65;43.61;45.53;;
66456;Laerm;56833;52.254;5.598;2023-03-01T00:18:54;44.67;43.74;45.60;;
66456;Laerm;56833;52.254;5.598;2023-03-01T00:19:05;44.70;43.92;45.61;;
66456;Laerm;56833;52.254;5.598;2023-03-01T00:19:16;44.67;43.69;45.67;;
66456;Laerm;56833;52.254;5.598;2023-03-01T00:19:30;44.70;43.65;45.77;;
66456;Laerm;56833;52.254;5.598;2023-03-01T00:19:42;44.70;43.80;45.64;;
66456;Laerm;56833;52.254;5.598;2023-03-01T00:19:52;44.70;43.69;45.63;;
66456;Laerm;56833;52.254;5.598;2023-03-01T00:20:03;44.74;43.87;45.62;;
66456;Laerm;56833;52.254;5.598;2023-03-01T00:20:13;44.69;43.86;45.54;;
66456;Laerm;56833;52.254;5.598;2023-03-01T00:20:24;44.68;43.85;45.67;;
66456;Laerm;56833;52.254;5.598;2023-03-01T00:20:34;44.71;43.64;45.78;;
66456;Laerm;56833;52.254;5.598;2023-03-01T00:20:54;44.70;43.47;45.92;;
66456;Laerm;56833;52.254;5.598;2023-03-01T00:21:05;44.71;43.64;45.78;;
66456;Laerm;56833;52.254;5.598;2023-03-01T00:21:15;44.69;43.79;45.79;;
66456;Laerm;56833;52.254;5.598;2023-03-01T00:21:26;44.73;43.60;45.65;;
66456;Laerm;56833;52.254;5.598;2023-03-01T00:21:36;44.73;43.68;45.45;;
66456;Laerm;56833;52.254;5.598;2023-03-01T00:21:46;44.75;43.87;45.79;;
66456;Laerm;56833;52.254;5.598;2023-03-01T00:21:57;44.73;43.81;45.71;;
66456;Laerm;56833;52.254;5.598;2023-03-01T00:22:07;44.75;43.72;45.68;;
66456;Laerm;56833;52.254;5.598;2023-03-01T00:22:17;44.74;43.36;45.71;;
66456;Laerm;56833;52.254;5.598;2023-03-01T00:22:27;44.73;43.91;45.73;;
66456;Laerm;56833;52.254;5.598;2023-03-01T00:22:40;44.71;43.72;45.75;;
66456;Laerm;56833;52.254;5.598;2023-03-01T00:22:51;44.70;43.65;45.65;;
66456;Laerm;56833;52.254;5.598;2023-03-01T00:23:01;44.71;43.51;45.78;;
66456;Laerm;56833;52.254;5.598;2023-03-01T00:23:11;44.70;43.82;45.64;;
66456;Laerm;56833;52.254;5.598;2023-03-01T00:23:22;44.68;43.45;45.56;;
66456;Laerm;56833;52.254;5.598;2023-03-01T00:23:35;44.72;43.50;45.70;;
66456;Laerm;56833;52.254;5.598;2023-03-01T00:23:46;44.72;43.86;45.66;;
66456;Laerm;56833;52.254;5.598;2023-03-01T00:23:58;44.73;43.54;45.59;;
66456;Laerm;56833;52.254;5.598;2023-03-01T00:24:08;44.75;43.77;45.71;;
66456;Laerm;56833;52.254;5.598;2023-03-01T00:24:19;44.75;43.34;45.89;;
66456;Laerm;56833;52.254;5.598;2023-03-01T00:24:29;44.75;43.62;45.83;;
66456;Laerm;56833;52.254;5.598;2023-03-01T00:24:39;44.69;43.78;45.66;;
66456;Laerm;56833;52.254;5.598;2023-03-01T00:24:49;44.74;43.91;45.73;;
66456;Laerm;56833;52.254;5.598;2023-03-01T00:25:00;44.74;43.76;45.57;;
66456;Laerm;56833;52.254;5.598;2023-03-01T00:25:10;44.72;43.65;45.73;;
66456;Laerm;56833;52.254;5.598;2023-03-01T00:25:20;44.70;43.86;45.72;;
66456;Laerm;56833;52.254;5.598;2023-03-01T00:25:31;44.65;43.32;45.70;;
66456;Laerm;56833;52.254;5.598;2023-03-01T00:25:41;44.67;43.49;45.54;;
66456;Laerm;56833;52.254;5.598;2023-03-01T00:25:52;44.69;43.43;45.82;;
66456;Laerm;56833;52.254;5.598;2023-03-01T00:26:05;44.65;43.44;45.50;;
66456;Laerm;56833;52.254;5.598;2023-03-01T00:26:16;44.62;43.61;45.45;;
66456;Laerm;56833;52.254;5.598;2023-03-01T00:26:27;44.60;43.67;45.50;;
66456;Laerm;56833;52.254;5.598;2023-03-01T00:26:38;44.58;43.50;45.49;;
66456;Laerm;56833;52.254;5.598;2023-03-01T00:26:48;44.62;43.50;46.10;;
66456;Laerm;56833;52.254;5.598;2023-03-01T00:26:59;44.60;43.67;45.47;;
66456;Laerm;56833;52.254;5.598;2023-03-01T00:27:10;44.61;43.41;45.59;;
66456;Laerm;56833;52.254;5.598;2023-03-01T00:27:20;44.54;43.61;45.56;;
66456;Laerm;56833;52.254;5.598;2023-03-01T00:27:31;44.55;43.74;45.76;;
66456;Laerm;56833;52.254;5.598;2023-03-01T00:27:41;44.52;43.32;45.69;;
66456;Laerm;56833;52.254;5.598;2023-03-01T00:27:51;44.58;43.63;45.64;;
66456;Laerm;56833;52.254;5.598;2023-03-01T00:28:01;44.61;43.74;45.48;;
66456;Laerm;56833;52.254;5.598;2023-03-01T00:28:11;44.65;43.47;45.53;;
66456;Laerm;56833;52.254;5.598;2023-03-01T00:28:22;44.64;43.67;45.53;;
66456;Laerm;56833;52.254;5.598;2023-03-01T00:28:32;44.64;43.45;45.59;;
66456;Laerm;56833;52.254;5.598;2023-03-01T00:28:43;44.69;43.80;45.86;;
66456;Laerm;56833;52.254;5.598;2023-03-01T00:28:53;44.73;43.65;45.68;;
66456;Laerm;56833;52.254;5.598;2023-03-01T00:29:05;44.75;43.45;45.72;;
66456;Laerm;56833;52.254;5.598;2023-03-01T00:29:15;44.77;43.80;45.68;;
66456;Laerm;56833;52.254;5.598;2023-03-01T00:29:25;44.74;43.86;45.59;;
66456;Laerm;56833;52.254;5.598;2023-03-01T00:29:36;44.78;43.73;46.11;;
66456;Laerm;56833;52.254;5.598;2023-03-01T00:29:46;44.81;43.80;45.93;;
66456;Laerm;56833;52.254;5.598;2023-03-01T00:29:56;44.84;43.79;45.91;;
66456;Laerm;56833;52.254;5.598;2023-03-01T00:30:07;44.81;43.67;45.69;;
66456;Laerm;56833;52.254;5.598;2023-03-01T00:30:20;44.89;43.90;45.66;;
66456;Laerm;56833;52.254;5.598;2023-03-01T00:30:31;44.89;44.00;45.78;;
66456;Laerm;56833;52.254;5.598;2023-03-01T00:30:41;44.93;44.06;45.95;;
66456;Laerm;56833;52.254;5.598;2023-03-01T00:30:51;44.91;44.00;45.70;;
66456;Laerm;56833;52.254;5.598;2023-03-01T00:31:16;44.96;43.95;45.88;;
66456;Laerm;56833;52.254;5.598;2023-03-01T00:31:27;44.94;44.10;45.93;;
66456;Laerm;56833;52.254;5.598;2023-03-01T00:31:39;44.97;43.88;45.89;;
66456;Laerm;56833;52.254;5.598;2023-03-01T00:31:49;44.97;43.99;46.21;;
66456;Laerm;56833;52.254;5.598;2023-03-01T00:31:59;44.96;43.93;45.86;;
66456;Laerm;56833;52.254;5.598;2023-03-01T00:32:10;44.98;43.81;45.91;;
66456;Laerm;56833;52.254;5.598;2023-03-01T00:32:20;45.00;43.92;46.03;;
66456;Laerm;56833;52.254;5.598;2023-03-01T00:32:30;45.03;44.04;45.98;;
66456;Laerm;56833;52.254;5.598;2023-03-01T00:32:40;44.98;43.98;45.87;;
66456;Laerm;56833;52.254;5.598;2023-03-01T00:32:51;45.02;44.12;46.01;;
66456;Laerm;56833;52.254;5.598;2023-03-01T00:33:01;45.03;43.80;45.84;;
66456;Laerm;56833;52.254;5.598;2023-03-01T00:33:11;45.07;44.15;46.22;;
66456;Laerm;56833;52.254;5.598;2023-03-01T00:33:21;45.08;43.95;46.03;;
66456;Laerm;56833;52.254;5.598;2023-03-01T00:33:32;45.09;44.02;45.93;;
66456;Laerm;56833;52.254;5.598;2023-03-01T00:33:43;45.06;44.08;46.13;;
66456;Laerm;56833;52.254;5.598;2023-03-01T00:33:54;45.07;44.23;45.87;;
66456;Laerm;56833;52.254;5.598;2023-03-01T00:34:07;45.10;44.16;46.15;;
66456;Laerm;56833;52.254;5.598;2023-03-01T00:34:18;45.12;44.20;45.89;;
66456;Laerm;56833;52.254;5.598;2023-03-01T00:34:28;45.08;44.14;46.26;;
66456;Laerm;56833;52.254;5.598;2023-03-01T00:34:38;45.13;44.18;46.08;;
66456;Laerm;56833;52.254;5.598;2023-03-01T00:34:48;45.16;44.07;46.05;;
66456;Laerm;56833;52.254;5.598;2023-03-01T00:35:08;45.14;44.03;46.28;;
66456;Laerm;56833;52.254;5.598;2023-03-01T00:35:18;45.12;44.13;46.16;;
66456;Laerm;56833;52.254;5.598;2023-03-01T00:35:28;45.14;44.09;46.06;;
66456;Laerm;56833;52.254;5.598;2023-03-01T00:35:41;45.13;44.15;45.98;;
66456;Laerm;56833;52.254;5.598;2023-03-01T00:35:51;45.15;44.14;46.13;;
66456;Laerm;56833;52.254;5.598;2023-03-01T00:36:02;45.16;43.87;46.27;;
66456;Laerm;56833;52.254;5.598;2023-03-01T00:36:13;45.12;44.07;46.07;;
66456;Laerm;56833;52.254;5.598;2023-03-01T00:36:24;45.17;44.27;46.23;;
66456;Laerm;56833;52.254;5.598;2023-03-01T00:36:36;45.16;43.91;46.09;;
66456;Laerm;56833;52.254;5.598;2023-03-01T00:36:49;45.14;44.10;46.21;;
66456;Laerm;56833;52.254;5.598;2023-03-01T00:37:00;45.17;44.28;46.16;;
66456;Laerm;56833;52.254;5.598;2023-03-01T00:37:18;45.10;44.12;46.09;;
66456;Laerm;56833;52.254;5.598;2023-03-01T00:37:28;45.11;43.98;46.11;;
66456;Laerm;56833;52.254;5.598;2023-03-01T00:37:38;45.09;44.20;46.04;;
66456;Laerm;56833;52.254;5.598;2023-03-01T00:37:48;45.14;44.21;45.91;;
66456;Laerm;56833;52.254;5.598;2023-03-01T00:38:03;45.10;44.12;45.96;;
66456;Laerm;56833;52.254;5.598;2023-03-01T00:38:13;45.08;44.12;45.97;;
66456;Laerm;56833;52.254;5.598;2023-03-01T00:38:24;45.17;44.05;46.05;;
66456;Laerm;56833;52.254;5.598;2023-03-01T00:38:35;45.17;43.94;46.25;;
66456;Laerm;56833;52.254;5.598;2023-03-01T00:38:46;45.16;44.12;46.33;;
66456;Laerm;56833;52.254;5.598;2023-03-01T00:38:57;45.11;43.96;45.96;;
66456;Laerm;56833;52.254;5.598;2023-03-01T00:39:09;45.19;44.33;46.18;;
66456;Laerm;56833;52.254;5.598;2023-03-01T00:39:20;45.19;44.15;46.17;;
66456;Laerm;56833;52.254;5.598;2023-03-01T00:39:31;45.20;44.10;46.22;;
66456;Laerm;56833;52.254;5.598;2023-03-01T00:39:42;45.21;44.29;46.13;;
66456;Laerm;56833;52.254;5.598;2023-03-01T00:39:53;45.19;44.23;45.96;;
66456;Laerm;56833;52.254;5.598;2023-03-01T00:40:03;45.20;44.27;46.10;;
66456;Laerm;56833;52.254;5.598;2023-03-01T00:40:16;45.18;44.21;46.18;;
66456;Laerm;56833;52.254;5.598;2023-03-01T00:40:26;45.21;44.11;46.15;;
66456;Laerm;56833;52.254;5.598;2023-03-01T00:40:40;45.19;44.26;46.11;;
66456;Laerm;56833;52.254;5.598;2023-03-01T00:40:50;45.22;44.06;46.05;;
66456;Laerm;56833;52.254;5.598;2023-03-01T00:41:04;45.21;43.98;46.46;;
66456;Laerm;56833;52.254;5.598;2023-03-01T00:41:16;45.22;44.21;46.11;;
66456;Laerm;56833;52.254;5.598;2023-03-01T00:41:27;45.19;44.22;46.41;;
66456;Laerm;56833;52.254;5.598;2023-03-01T00:41:37;45.20;44.30;46.20;;
66456;Laerm;56833;52.254;5.598;2023-03-01T00:41:47;45.23;44.31;46.16;;
66456;Laerm;56833;52.254;5.598;2023-03-01T00:41:58;45.24;44.24;46.20;;
66456;Laerm;56833;52.254;5.598;2023-03-01T00:42:08;45.17;44.10;45.97;;
66456;Laerm;56833;52.254;5.598;2023-03-01T00:42:18;45.21;44.21;46.07;;
66456;Laerm;56833;52.254;5.598;2023-03-01T00:42:28;45.25;43.98;46.32;;
66456;Laerm;56833;52.254;5.598;2023-03-01T00:42:39;45.20;44.40;46.26;;
66456;Laerm;56833;52.254;5.598;2023-03-01T00:42:49;45.17;44.21;45.91;;
66456;Laerm;56833;52.254;5.598;2023-03-01T00:43:00;45.14;44.20;46.32;;
66456;Laerm;56833;52.254;5.598;2023-03-01T00:43:11;45.17;44.01;46.13;;
66456;Laerm;56833;52.254;5.598;2023-03-01T00:43:21;45.15;44.14;46.17;;
66456;Laerm;56833;52.254;5.598;2023-03-01T00:43:31;45.13;44.17;46.26;;
66456;Laerm;56833;52.254;5.598;2023-03-01T00:43:46;45.07;44.24;46.30;;
66456;Laerm;56833;52.254;5.598;2023-03-01T00:43:56;45.07;44.19;46.14;;
66456;Laerm;56833;52.254;5.598;2023-03-01T00:44:07;45.07;43.69;46.38;;
66456;Laerm;56833;52.254;5.598;2023-03-01T00:44:17;45.08;44.05;45.88;;
66456;Laerm;56833;52.254;5.598;2023-03-01T00:44:27;45.07;43.97;45.94;;
66456;Laerm;56833;52.254;5.598;2023-03-01T00:44:38;45.11;44.22;46.08;;
66456;Laerm;56833;52.254;5.598;2023-03-01T00:44:48;45.14;44.17;46.21;;
66456;Laerm;56833;52.254;5.598;2023-03-01T00:44:58;45.18;44.06;46.16;;
66456;Laerm;56833;52.254;5.598;2023-03-01T00:45:09;45.13;44.10;46.09;;
66456;Laerm;56833;52.254;5.598;2023-03-01T00:45:19;45.12;44.03;45.89;;
66456;Laerm;56833;52.254;5.598;2023-03-01T00:45:29;45.17;44.13;46.31;;
66456;Laerm;56833;52.254;5.598;2023-03-01T00:45:41;45.20;44.12;46.22;;
66456;Laerm;56833;52.254;5.598;2023-03-01T00:45:51;45.16;44.11;46.12;;
66456;Laerm;56833;52.254;5.598;2023-03-01T00:46:05;45.22;44.19;46.04;;
66456;Laerm;56833;52.254;5.598;2023-03-01T00:46:18;45.17;44.08;46.10;;
66456;Laerm;56833;52.254;5.598;2023-03-01T00:46:28;45.18;44.37;46.07;;
66456;Laerm;56833;52.254;5.598;2023-03-01T00:46:40;45.20;44.19;46.19;;
66456;Laerm;56833;52.254;5.598;2023-03-01T00:46:50;45.19;44.19;46.13;;
66456;Laerm;56833;52.254;5.598;2023-03-01T00:47:00;45.17;44.15;46.16;;
66456;Laerm;56833;52.254;5.598;2023-03-01T00:47:11;45.17;44.12;45.86;;
66456;Laerm;56833;52.254;5.598;2023-03-01T00:47:21;45.16;44.12;46.27;;
66456;Laerm;56833;52.254;5.598;2023-03-01T00:47:31;45.15;44.21;46.48;;
66456;Laerm;56833;52.254;5.598;2023-03-01T00:47:42;45.21;44.14;46.32;;
66456;Laerm;56833;52.254;5.598;2023-03-01T00:47:52;45.16;44.26;46.14;;
66456;Laerm;56833;52.254;5.598;2023-03-01T00:48:02;45.18;44.13;46.00;;
66456;Laerm;56833;52.254;5.598;2023-03-01T00:48:13;45.21;44.06;46.19;;
66456;Laerm;56833;52.254;5.598;2023-03-01T00:48:23;45.16;44.18;46.07;;
66456;Laerm;56833;52.254;5.598;2023-03-01T00:48:33;45.13;44.25;45.95;;
66456;Laerm;56833;52.254;5.598;2023-03-01T00:48:44;45.14;44.04;46.06;;
66456;Laerm;56833;52.254;5.598;2023-03-01T00:48:54;45.15;43.89;46.23;;
66456;Laerm;56833;52.254;5.598;2023-03-01T00:49:04;45.08;44.05;46.04;;
66456;Laerm;56833;52.254;5.598;2023-03-01T00:49:15;45.13;44.32;46.11;;
66456;Laerm;56833;52.254;5.598;2023-03-01T00:49:25;45.11;44.00;46.13;;
66456;Laerm;56833;52.254;5.598;2023-03-01T00:49:37;45.09;44.14;46.16;;
66456;Laerm;56833;52.254;5.598;2023-03-01T00:49:48;45.11;44.15;46.37;;
66456;Laerm;56833;52.254;5.598;2023-03-01T00:49:58;45.15;44.05;46.20;;
66456;Laerm;56833;52.254;5.598;2023-03-01T00:50:08;45.14;43.83;46.24;;
66456;Laerm;56833;52.254;5.598;2023-03-01T00:50:19;45.15;44.16;46.04;;
66456;Laerm;56833;52.254;5.598;2023-03-01T00:50:30;45.19;44.14;46.06;;
66456;Laerm;56833;52.254;5.598;2023-03-01T00:50:40;45.22;44.43;46.27;;
66456;Laerm;56833;52.254;5.598;2023-03-01T00:50:50;45.24;44.32;46.32;;
66456;Laerm;56833;52.254;5.598;2023-03-01T00:51:14;45.24;44.10;46.18;;
66456;Laerm;56833;52.254;5.598;2023-03-01T00:51:25;45.28;44.31;46.14;;
66456;Laerm;56833;52.254;5.598;2023-03-01T00:51:36;45.35;44.50;46.19;;
66456;Laerm;56833;52.254;5.598;2023-03-01T00:51:46;45.30;44.41;46.02;;
66456;Laerm;56833;52.254;5.598;2023-03-01T00:51:56;45.32;44.23;46.07;;
66456;Laerm;56833;52.254;5.598;2023-03-01T00:52:06;45.35;44.50;46.24;;
66456;Laerm;56833;52.254;5.598;2023-03-01T00:52:17;45.32;44.34;46.23;;
66456;Laerm;56833;52.254;5.598;2023-03-01T00:52:27;45.37;44.42;46.52;;
66456;Laerm;56833;52.254;5.598;2023-03-01T00:52:38;45.36;44.39;46.52;;
66456;Laerm;56833;52.254;5.598;2023-03-01T00:52:51;45.35;44.39;46.41;;
66456;Laerm;56833;52.254;5.598;2023-03-01T00:53:02;45.34;44.50;46.27;;
66456;Laerm;56833;52.254;5.598;2023-03-01T00:53:12;45.36;44.25;46.59;;
66456;Laerm;56833;52.254;5.598;2023-03-01T00:53:22;45.32;44.35;46.25;;
66456;Laerm;56833;52.254;5.598;2023-03-01T00:53:33;45.30;43.96;46.27;;
66456;Laerm;56833;52.254;5.598;2023-03-01T00:53:43;45.30;44.42;46.33;;
66456;Laerm;56833;52.254;5.598;2023-03-01T00:53:55;45.26;44.23;46.53;;
66456;Laerm;56833;52.254;5.598;2023-03-01T00:54:09;45.26;43.98;46.34;;
66456;Laerm;56833;52.254;5.598;2023-03-01T00:54:20;45.28;44.25;46.25;;
66456;Laerm;56833;52.254;5.598;2023-03-01T00:54:31;45.26;44.04;46.13;;
66456;Laerm;56833;52.254;5.598;2023-03-01T00:54:41;45.30;44.46;46.06;;
66456;Laerm;56833;52.254;5.598;2023-03-01T00:54:52;45.28;44.38;46.38;;
66456;Laerm;56833;52.254;5.598;2023-03-01T00:55:03;45.31;44.50;46.29;;
66456;Laerm;56833;52.254;5.598;2023-03-01T00:55:13;45.31;44.24;46.36;;
66456;Laerm;56833;52.254;5.598;2023-03-01T00:55:24;45.36;44.41;46.39;;
66456;Laerm;56833;52.254;5.598;2023-03-01T00:55:35;45.38;44.24;46.38;;
66456;Laerm;56833;52.254;5.598;2023-03-01T00:55:45;45.34;44.18;46.25;;
66456;Laerm;56833;52.254;5.598;2023-03-01T00:55:56;45.31;44.32;46.28;;
66456;Laerm;56833;52.254;5.598;2023-03-01T00:56:08;45.34;44.40;46.36;;
66456;Laerm;56833;52.254;5.598;2023-03-01T00:56:19;45.36;44.11;46.38;;
66456;Laerm;56833;52.254;5.598;2023-03-01T00:56:29;45.34;44.23;46.21;;
66456;Laerm;56833;52.254;5.598;2023-03-01T00:56:40;45.34;44.11;46.20;;
66456;Laerm;56833;52.254;5.598;2023-03-01T00:56:50;45.32;44.24;46.21;;
66456;Laerm;56833;52.254;5.598;2023-03-01T00:57:01;45.27;44.45;46.20;;
66456;Laerm;56833;52.254;5.598;2023-03-01T00:57:11;45.32;44.09;46.30;;
66456;Laerm;56833;52.254;5.598;2023-03-01T00:57:21;45.27;44.12;46.36;;
66456;Laerm;56833;52.254;5.598;2023-03-01T00:57:31;45.30;44.15;46.08;;
66456;Laerm;56833;52.254;5.598;2023-03-01T00:57:42;45.27;44.39;46.13;;
66456;Laerm;56833;52.254;5.598;2023-03-01T00:57:52;45.27;44.43;46.28;;
66456;Laerm;56833;52.254;5.598;2023-03-01T00:58:02;45.22;44.36;46.31;;
66456;Laerm;56833;52.254;5.598;2023-03-01T00:58:12;45.25;44.32;46.19;;
66456;Laerm;56833;52.254;5.598;2023-03-01T00:58:23;45.25;44.38;46.00;;
66456;Laerm;56833;52.254;5.598;2023-03-01T00:58:33;45.22;44.09;46.20;;
66456;Laerm;56833;52.254;5.598;2023-03-01T00:58:44;45.22;44.31;46.08;;
66456;Laerm;56833;52.254;5.598;2023-03-01T00:58:54;45.21;44.23;45.95;;
66456;Laerm;56833;52.254;5.598;2023-03-01T00:59:04;45.22;44.25;46.06;;
66456;Laerm;56833;52.254;5.598;2023-03-01T00:59:14;45.21;43.99;46.29;;
66456;Laerm;56833;52.254;5.598;2023-03-01T00:59:24;45.20;44.43;46.40;;
66456;Laerm;56833;52.254;5.598;2023-03-01T00:59:38;45.19;44.16;46.19;;
66456;Laerm;56833;52.254;5.598;2023-03-01T00:59:48;45.19;44.15;46.30;;
66456;Laerm;56833;52.254;5.598;2023-03-01T00:59:58;45.21;44.03;45.97;;
66456;Laerm;56833;52.254;5.598;2023-03-01T01:00:09;45.23;44.22;46.20;;
66456;Laerm;56833;52.254;5.598;2023-03-01T01:00:20;45.24;43.74;46.32;;
66456;Laerm;56833;52.254;5.598;2023-03-01T01:00:30;45.24;43.91;46.14;;
66456;Laerm;56833;52.254;5.598;2023-03-01T01:00:43;45.19;44.14;46.03;;
66456;Laerm;56833;52.254;5.598;2023-03-01T01:00:55;45.22;43.92;46.13;;
66456;Laerm;56833;52.254;5.598;2023-03-01T01:01:12;45.22;44.21;46.26;;
66456;Laerm;56833;52.254;5.598;2023-03-01T01:01:30;45.24;43.96;46.35;;
66456;Laerm;56833;52.254;5.598;2023-03-01T01:01:40;45.24;44.24;46.20;;
66456;Laerm;56833;52.254;5.598;2023-03-01T01:01:51;45.20;44.31;45.99;;